Conklin, Canada
Current Conditions -  °F | °C
As of 9:00 AM on Tuesday 21 Oct 2014 (Local Time) from CWHN Reporting Station
Clear Clear  
Wind Chill: 42°   Ceiling: Unl
Heat Index: 46°   Visibility: 9mi
Dew Point: 39°   Wind: 9mph
Humidity: 76%   Direction: 340°NNW
Pressure: 29.48"   Gusts: 18mph
Location:  55.63°N, 111.08°W
Report Text: CWHN 211500Z AUTO 34008G16KT 300V360 9SM CLR 08/04 A2948 RMK SLP001
Loading
Personal Weather Stations






























Interactive Weather Map
Tropical Storm Tracking
New forecast layout! Learn more

10-Day Weather Forecast

Advertisements
Track Severe Weather on mobile